Time;durP1;ratioP1;P1;durP2;ratioP2;P2;SDS_P1;SDS_P2;PMS_P1;PMS_P2;Temp;Humidity;BMP_temperature;BMP_pressure;BME280_temperature;BME280_humidity;BME280_pressure;Samples;Min_cycle;Max_cycle;Signal;HPM_P1;HPM_P2
2023/10/22 00:02:22;;;;;;;5.85;1.80;;;12.80;99.90;;;;;;6225804;23;20028;-68
2023/10/22 00:04:47;;;;;;;4.47;1.08;;;12.70;99.90;;;;;;6224693;23;20000;-68
2023/10/22 00:07:16;;;;;;;3.25;0.77;;;12.70;99.90;;;;;;6224238;23;20011;-68
2023/10/22 00:09:41;;;;;;;2.38;1.00;;;12.90;99.90;;;;;;6225587;23;20004;-68
2023/10/22 00:12:07;;;;;;;4.82;0.95;;;12.80;99.90;;;;;;6225193;23;20068;-68
2023/10/22 00:14:33;;;;;;;2.88;0.60;;;12.70;99.90;;;;;;6224493;23;20004;-68
2023/10/22 00:16:59;;;;;;;3.88;0.80;;;12.70;99.90;;;;;;6224934;23;20008;-68
2023/10/22 00:19:25;;;;;;;1.45;0.82;;;12.90;99.90;;;;;;6224324;23;20024;-68
2023/10/22 00:21:51;;;;;;;4.35;0.98;;;12.70;99.90;;;;;;6225301;23;20016;-68
2023/10/22 00:24:16;;;;;;;2.40;0.85;;;12.70;99.90;;;;;;6224531;23;20004;-68
2023/10/22 00:26:42;;;;;;;6.40;1.08;;;12.60;99.90;;;;;;6224780;23;20026;-68
2023/10/22 00:29:07;;;;;;;3.08;0.82;;;12.60;99.90;;;;;;6224302;23;20000;-68
2023/10/22 00:31:33;;;;;;;1.63;0.90;;;12.60;99.90;;;;;;6224186;23;20012;-68
2023/10/22 00:33:58;;;;;;;2.60;0.85;;;12.60;99.90;;;;;;6224384;23;20004;-68
2023/10/22 00:36:24;;;;;;;4.53;1.20;;;12.50;99.90;;;;;;6224273;23;20004;-68
2023/10/22 00:38:50;;;;;;;2.38;1.00;;;12.50;99.90;;;;;;6224634;23;20008;-68
2023/10/22 00:41:16;;;;;;;5.30;1.00;;;12.40;99.90;;;;;;6224584;23;20019;-68
2023/10/22 00:43:41;;;;;;;2.30;0.80;;;12.30;99.90;;;;;;6224229;23;20087;-68
2023/10/22 00:46:15;;;;;;;4.15;1.25;;;12.40;99.90;;;;;;6224593;23;19996;-67
2023/10/22 00:48:40;;;;;;;7.90;1.55;;;12.30;99.90;;;;;;6225228;23;20088;-67
2023/10/22 00:51:06;;;;;;;3.28;1.42;;;12.20;99.90;;;;;;6224431;23;20007;-67
2023/10/22 00:53:31;;;;;;;5.00;1.13;;;12.20;99.90;;;;;;6224202;23;20000;-68
2023/10/22 00:55:57;;;;;;;1.15;0.77;;;12.30;99.90;;;;;;6224028;23;20001;-68
2023/10/22 00:58:23;;;;;;;2.65;1.00;;;12.30;99.90;;;;;;6225144;23;20027;-68
2023/10/22 01:00:49;;;;;;;2.88;0.90;;;12.20;99.90;;;;;;6224528;23;20007;-68
2023/10/22 01:03:16;;;;;;;5.25;0.90;;;12.20;99.90;;;;;;6225058;23;20032;-68
2023/10/22 01:05:41;;;;;;;4.68;1.10;;;12.20;99.90;;;;;;6224565;23;20000;-68
2023/10/22 01:08:09;;;;;;;3.85;0.90;;;12.20;99.90;;;;;;6224072;23;20016;-68
2023/10/22 01:10:34;;;;;;;3.85;1.00;;;12.30;99.90;;;;;;6224473;23;20000;-68
2023/10/22 01:13:01;;;;;;;4.53;1.00;;;12.30;99.90;;;;;;6224460;23;20006;-68
2023/10/22 01:15:27;;;;;;;8.88;0.98;;;12.40;99.90;;;;;;6224413;23;20086;-68
2023/10/22 01:17:53;;;;;;;2.30;1.30;;;12.50;99.90;;;;;;6224401;23;20008;-68
2023/10/22 01:20:19;;;;;;;10.45;1.40;;;12.50;99.90;;;;;;6225375;23;20091;-68
2023/10/22 01:22:44;;;;;;;1.75;0.75;;;12.20;99.90;;;;;;6225814;23;20039;-68
2023/10/22 01:25:10;;;;;;;2.30;0.70;;;12.10;99.90;;;;;;6226093;23;20004;-68
2023/10/22 01:27:36;;;;;;;4.03;0.98;;;12.20;99.90;;;;;;6226486;23;19997;-68
2023/10/22 01:30:03;;;;;;;2.40;0.80;;;12.30;99.90;;;;;;6225194;22;20071;-64
2023/10/22 01:32:30;;;;;;;3.42;0.82;;;12.10;99.90;;;;;;6252502;23;20008;-64
2023/10/22 01:35:00;;;;;;;5.97;1.00;;;12.20;99.90;;;;;;6225825;23;20015;-64
2023/10/22 01:37:26;;;;;;;5.72;0.82;;;12.10;99.90;;;;;;6226125;23;20008;-64
2023/10/22 01:39:52;;;;;;;3.13;0.80;;;12.10;99.90;;;;;;6225954;23;20019;-64
2023/10/22 01:42:18;;;;;;;1.98;0.90;;;12.10;99.90;;;;;;6226160;23;20004;-64
2023/10/22 01:44:44;;;;;;;4.25;0.90;;;12.30;99.90;;;;;;6225942;23;20007;-64
2023/10/22 01:47:10;;;;;;;1.05;0.60;;;12.50;99.90;;;;;;6225986;23;20000;-64
2023/10/22 01:49:37;;;;;;;4.97;0.73;;;12.60;99.90;;;;;;6225813;23;20008;-64
2023/10/22 01:52:03;;;;;;;1.90;1.35;;;12.60;99.90;;;;;;6225967;23;20071;-64
2023/10/22 01:54:28;;;;;;;5.43;0.90;;;12.60;99.90;;;;;;6225790;23;20035;-64
2023/10/22 01:56:54;;;;;;;6.10;1.42;;;12.70;99.90;;;;;;6252338;23;20062;-64
2023/10/22 01:59:19;;;;;;;1.52;0.77;;;12.80;99.90;;;;;;6227000;23;20004;-64
2023/10/22 02:01:45;;;;;;;2.88;1.05;;;12.70;99.90;;;;;;6225426;23;20031;-64
2023/10/22 02:04:11;;;;;;;7.88;1.27;;;12.50;99.90;;;;;;6225743;23;19996;-64
2023/10/22 02:06:36;;;;;;;2.08;1.17;;;12.30;99.90;;;;;;6225997;23;20000;-64
2023/10/22 02:09:02;;;;;;;4.18;1.00;;;12.40;99.90;;;;;;6225816;23;20134;-64
2023/10/22 02:11:28;;;;;;;2.33;1.15;;;12.40;99.90;;;;;;6252209;23;20061;-64
2023/10/22 02:13:53;;;;;;;2.60;1.65;;;12.30;99.90;;;;;;6225698;23;20067;-64
2023/10/22 02:16:19;;;;;;;3.97;0.98;;;11.90;99.90;;;;;;6225735;23;20008;-64
2023/10/22 02:18:45;;;;;;;3.20;0.75;;;11.90;99.90;;;;;;6252040;23;20075;-64
2023/10/22 02:21:11;;;;;;;3.53;1.08;;;11.80;99.90;;;;;;6226369;23;20134;-64
2023/10/22 02:23:39;;;;;;;3.10;0.80;;;11.80;99.90;;;;;;6251924;23;20000;-64
2023/10/22 02:26:05;;;;;;;3.00;1.25;;;11.80;99.90;;;;;;6252235;23;20003;-64
2023/10/22 02:28:31;;;;;;;1.33;0.55;;;11.70;99.90;;;;;;6225909;23;20004;-64
2023/10/22 02:30:56;;;;;;;2.30;0.70;;;11.80;99.90;;;;;;6225010;23;20004;-64
2023/10/22 02:33:22;;;;;;;3.55;0.82;;;11.70;99.90;;;;;;6226509;23;20000;-64
2023/10/22 02:35:48;;;;;;;8.00;1.20;;;11.70;99.90;;;;;;6251880;23;20000;-64
2023/10/22 02:38:16;;;;;;;2.85;0.80;;;11.70;99.90;;;;;;6226300;23;20000;-64
2023/10/22 02:40:43;;;;;;;1.67;0.60;;;11.60;99.90;;;;;;6252007;23;20023;-64
2023/10/22 02:43:10;;;;;;;4.07;1.20;;;11.60;99.90;;;;;;6251652;23;20011;-64
2023/10/22 02:45:35;;;;;;;6.95;1.23;;;11.50;99.90;;;;;;6225356;23;20015;-64
2023/10/22 02:48:01;;;;;;;4.25;0.80;;;11.30;99.90;;;;;;6226384;23;20000;-64
2023/10/22 02:50:27;;;;;;;4.25;0.73;;;11.20;99.90;;;;;;6225105;23;20030;-64
2023/10/22 02:52:53;;;;;;;5.80;1.90;;;11.40;99.90;;;;;;6252084;23;20054;-63
2023/10/22 02:55:19;;;;;;;4.47;0.95;;;11.30;99.90;;;;;;6225274;23;20012;-64
2023/10/22 02:57:45;;;;;;;2.85;0.55;;;11.30;99.90;;;;;;6225996;23;20086;-64
2023/10/22 03:00:11;;;;;;;2.33;0.90;;;11.50;99.90;;;;;;6225484;23;20000;-64
2023/10/22 03:02:40;;;;;;;7.13;0.80;;;11.40;99.90;;;;;;6225080;23;20039;-64
2023/10/22 03:05:07;;;;;;;4.00;1.40;;;11.30;99.90;;;;;;6251866;23;20000;-64
2023/10/22 03:07:32;;;;;;;2.10;0.90;;;11.30;99.90;;;;;;6225420;23;20007;-64
2023/10/22 03:09:58;;;;;;;1.50;0.70;;;11.30;99.90;;;;;;6251736;23;20004;-64
2023/10/22 03:12:24;;;;;;;1.35;0.52;;;11.30;99.90;;;;;;6251740;23;20000;-64
2023/10/22 03:14:53;;;;;;;1.88;0.70;;;11.40;99.90;;;;;;6251620;23;20039;-64
2023/10/22 03:17:19;;;;;;;1.23;0.60;;;11.30;99.90;;;;;;6251416;23;20000;-64
2023/10/22 03:19:46;;;;;;;1.58;0.80;;;11.30;99.90;;;;;;6251276;23;20004;-64
2023/10/22 03:22:13;;;;;;;2.92;0.95;;;11.30;99.90;;;;;;6225436;23;20028;-64
2023/10/22 03:24:38;;;;;;;3.55;0.80;;;11.40;99.90;;;;;;6225370;23;20000;-64
2023/10/22 03:27:05;;;;;;;3.72;1.05;;;11.40;99.90;;;;;;6224817;23;20087;-65
2023/10/22 03:29:34;;;;;;;2.50;0.88;;;11.40;99.90;;;;;;6225412;23;20004;-64
2023/10/22 03:31:59;;;;;;;2.65;0.95;;;11.40;99.90;;;;;;6251136;23;20012;-64
2023/10/22 03:34:25;;;;;;;5.55;0.90;;;11.40;99.90;;;;;;6224901;23;20115;-64
2023/10/22 03:36:51;;;;;;;4.50;0.98;;;11.40;99.90;;;;;;6224875;23;20009;-64
2023/10/22 03:39:17;;;;;;;2.22;0.80;;;11.50;99.90;;;;;;6225963;23;20008;-64
2023/10/22 03:41:43;;;;;;;4.25;0.70;;;11.50;99.90;;;;;;6250829;23;20026;-64
2023/10/22 03:44:09;;;;;;;0.90;0.68;;;11.40;99.90;;;;;;6251160;23;20075;-64
2023/10/22 03:46:35;;;;;;;4.25;0.85;;;11.30;99.90;;;;;;6251185;23;20079;-64
2023/10/22 03:49:00;;;;;;;4.22;0.98;;;11.20;99.90;;;;;;6251795;23;20027;-64
2023/10/22 03:51:26;;;;;;;7.35;0.80;;;11.10;99.90;;;;;;6224513;23;20032;-64
2023/10/22 03:53:56;;;;;;;3.97;0.90;;;11.20;99.90;;;;;;6225663;23;20008;-64
2023/10/22 03:56:22;;;;;;;7.57;1.08;;;11.20;99.90;;;;;;6224651;23;20058;-64
2023/10/22 03:58:48;;;;;;;4.15;0.85;;;11.20;99.90;;;;;;6251115;23;20005;-64
2023/10/22 04:01:13;;;;;;;2.33;0.75;;;11.20;99.90;;;;;;6250795;23;20004;-64
2023/10/22 04:03:39;;;;;;;7.13;0.93;;;11.10;99.90;;;;;;6250985;23;20007;-64
2023/10/22 04:06:04;;;;;;;4.25;0.85;;;11.30;99.90;;;;;;6251357;23;19996;-64
2023/10/22 04:08:30;;;;;;;5.90;0.90;;;11.40;99.90;;;;;;6250966;23;19996;-64
2023/10/22 04:10:56;;;;;;;3.63;1.02;;;11.40;99.90;;;;;;6250835;23;20000;-64
2023/10/22 04:13:22;;;;;;;1.90;1.00;;;11.40;99.90;;;;;;6250890;23;20004;-64
2023/10/22 04:15:48;;;;;;;4.72;1.10;;;11.40;99.90;;;;;;6224530;23;20036;-65
2023/10/22 04:18:15;;;;;;;4.57;0.95;;;11.50;99.90;;;;;;6251273;23;20000;-64
2023/10/22 04:20:41;;;;;;;3.47;1.10;;;11.50;99.90;;;;;;6250725;23;20008;-64
2023/10/22 04:23:08;;;;;;;1.60;0.73;;;11.50;99.90;;;;;;6251014;23;20015;-64
2023/10/22 04:25:40;;;;;;;3.60;1.30;;;11.60;99.90;;;;;;6224378;23;20004;-64
2023/10/22 04:28:06;;;;;;;3.55;0.82;;;11.50;99.90;;;;;;6250779;23;20012;-64
2023/10/22 04:30:34;;;;;;;5.95;1.13;;;11.50;99.90;;;;;;6224299;23;20011;-64
2023/10/22 04:33:00;;;;;;;5.55;0.90;;;11.60;99.90;;;;;;6224501;23;20018;-64
2023/10/22 04:35:25;;;;;;;7.90;1.23;;;11.70;99.90;;;;;;6224341;23;20031;-64
2023/10/22 04:37:53;;;;;;;1.77;0.88;;;11.60;99.90;;;;;;6224276;23;20100;-64
2023/10/22 04:40:19;;;;;;;2.85;1.00;;;11.60;99.90;;;;;;6250469;23;20007;-64
2023/10/22 04:42:44;;;;;;;2.38;0.82;;;11.60;99.90;;;;;;6224214;23;20008;-64
2023/10/22 04:45:10;;;;;;;1.08;0.80;;;11.50;99.90;;;;;;6250681;23;19996;-64
2023/10/22 04:47:36;;;;;;;4.93;0.80;;;11.50;99.90;;;;;;6250873;23;19993;-64
2023/10/22 04:50:01;;;;;;;6.93;1.33;;;11.40;99.90;;;;;;6224113;23;20122;-64
2023/10/22 04:52:31;;;;;;;4.05;0.95;;;11.40;99.90;;;;;;6224638;23;20008;-64
2023/10/22 04:55:00;;;;;;;7.95;0.90;;;11.50;99.90;;;;;;6250571;23;20004;-64
2023/10/22 04:57:26;;;;;;;2.65;1.10;;;11.50;99.90;;;;;;6250384;23;20035;-64
2023/10/22 04:59:52;;;;;;;6.03;1.08;;;11.60;99.90;;;;;;6223843;23;20008;-64
2023/10/22 05:02:18;;;;;;;4.00;0.88;;;11.60;99.90;;;;;;6250836;23;20004;-64
2023/10/22 05:04:47;;;;;;;5.32;0.82;;;11.50;99.90;;;;;;6224638;23;20000;-64
2023/10/22 05:07:13;;;;;;;6.30;0.85;;;11.60;99.90;;;;;;6250972;23;19996;-64
2023/10/22 05:09:39;;;;;;;10.90;1.33;;;11.60;99.90;;;;;;6250296;23;19996;-64
2023/10/22 05:12:05;;;;;;;1.85;1.02;;;11.60;99.90;;;;;;6250452;23;20034;-64
2023/10/22 05:14:31;;;;;;;7.45;0.80;;;11.70;99.90;;;;;;6224224;23;20011;-64
2023/10/22 05:16:57;;;;;;;7.50;1.15;;;11.90;99.90;;;;;;6224780;23;20004;-64
2023/10/22 05:19:22;;;;;;;10.38;1.58;;;11.90;99.90;;;;;;6250601;23;20119;-64
2023/10/22 05:21:48;;;;;;;4.90;0.73;;;12.10;99.90;;;;;;6250294;23;19996;-64
2023/10/22 05:24:13;;;;;;;6.68;0.90;;;12.30;99.90;;;;;;6224314;23;20004;-64
2023/10/22 05:26:39;;;;;;;4.95;1.73;;;12.30;99.90;;;;;;6224651;23;20011;-64
2023/10/22 05:29:06;;;;;;;7.40;1.05;;;12.40;99.90;;;;;;6223989;23;20004;-64
2023/10/22 05:31:32;;;;;;;7.13;1.52;;;12.50;99.90;;;;;;6250268;23;20031;-64
2023/10/22 05:33:57;;;;;;;9.75;1.08;;;12.70;99.90;;;;;;6223887;23;20000;-64
2023/10/22 05:36:25;;;;;;;7.25;0.98;;;12.80;99.90;;;;;;6224680;23;20022;-64
2023/10/22 05:38:51;;;;;;;5.97;1.13;;;12.90;99.90;;;;;;6250658;23;20008;-64
2023/10/22 05:41:28;;;;;;;5.50;1.05;;;13.00;99.90;;;;;;6224246;23;20015;-64
2023/10/22 05:44:01;;;;;;;4.63;0.98;;;13.00;99.90;;;;;;6250787;23;19996;-64
2023/10/22 05:46:28;;;;;;;1.77;0.57;;;13.00;99.90;;;;;;6223938;23;20086;-64
2023/10/22 05:48:54;;;;;;;7.80;0.90;;;13.00;99.90;;;;;;6224500;23;20007;-64
2023/10/22 05:51:20;;;;;;;4.30;0.80;;;13.00;99.90;;;;;;6250303;23;19996;-64
2023/10/22 05:53:46;;;;;;;3.80;0.73;;;13.00;99.90;;;;;;6223912;23;19996;-64
2023/10/22 05:56:11;;;;;;;9.80;1.55;;;13.10;99.90;;;;;;6223988;23;20004;-64
2023/10/22 05:58:39;;;;;;;4.50;0.77;;;13.00;99.90;;;;;;6250369;23;20000;-64
2023/10/22 06:01:04;;;;;;;7.50;1.88;;;13.00;99.90;;;;;;6250673;23;20003;-64
2023/10/22 06:03:30;;;;;;;2.40;0.73;;;13.00;99.90;;;;;;6224829;23;20000;-64
2023/10/22 06:05:56;;;;;;;5.25;0.90;;;13.00;99.90;;;;;;6224879;23;20000;-64
2023/10/22 06:08:22;;;;;;;5.80;1.35;;;13.10;99.90;;;;;;6226399;23;20000;-64
2023/10/22 06:10:47;;;;;;;3.67;0.95;;;13.10;99.90;;;;;;6226495;23;20055;-64
2023/10/22 06:13:13;;;;;;;5.43;1.35;;;13.00;99.90;;;;;;6225571;23;20008;-64
2023/10/22 06:15:40;;;;;;;4.18;1.08;;;13.20;99.90;;;;;;6225898;23;20004;-64
2023/10/22 06:18:06;;;;;;;2.45;0.50;;;13.00;99.90;;;;;;6225366;23;20004;-64
2023/10/22 06:20:33;;;;;;;6.45;0.80;;;13.00;99.90;;;;;;6225725;23;20011;-64
2023/10/22 06:22:58;;;;;;;3.67;1.15;;;13.10;99.90;;;;;;6225686;23;20008;-64
2023/10/22 06:25:24;;;;;;;3.13;1.20;;;13.20;99.90;;;;;;6225479;23;20011;-64
2023/10/22 06:27:51;;;;;;;4.70;0.88;;;13.20;99.90;;;;;;6226478;23;20079;-64
2023/10/22 06:30:22;;;;;;;6.18;1.20;;;13.20;99.90;;;;;;6225531;23;20008;-64
2023/10/22 06:32:50;;;;;;;5.35;1.13;;;13.20;99.90;;;;;;6226798;23;20004;-64
2023/10/22 06:35:15;;;;;;;13.65;1.27;;;13.10;99.90;;;;;;6225648;23;20004;-64
2023/10/22 06:37:41;;;;;;;9.13;1.38;;;13.10;99.90;;;;;;6225348;23;20039;-64
2023/10/22 06:40:07;;;;;;;6.70;1.00;;;13.20;99.90;;;;;;6225801;23;20014;-64
2023/10/22 06:42:33;;;;;;;3.72;0.80;;;13.30;99.90;;;;;;6225493;23;20060;-64
2023/10/22 06:44:59;;;;;;;3.55;0.63;;;13.20;99.90;;;;;;6225315;23;20004;-64
2023/10/22 06:47:25;;;;;;;2.20;0.70;;;13.20;99.90;;;;;;6226425;23;20079;-64
2023/10/22 06:49:51;;;;;;;3.17;0.80;;;13.20;99.90;;;;;;6226088;23;20004;-64
2023/10/22 06:52:18;;;;;;;7.95;1.05;;;13.10;99.90;;;;;;6225879;23;20012;-64
2023/10/22 06:54:44;;;;;;;3.92;0.80;;;13.10;99.90;;;;;;6226373;23;20011;-64
2023/10/22 06:57:09;;;;;;;2.47;0.90;;;13.10;99.90;;;;;;6225422;23;20083;-64
2023/10/22 06:59:35;;;;;;;2.80;1.10;;;13.30;99.90;;;;;;6225398;23;20000;-64
2023/10/22 07:02:00;;;;;;;9.20;1.10;;;13.20;99.90;;;;;;6225162;23;20074;-64
2023/10/22 07:04:26;;;;;;;4.38;0.88;;;13.20;99.90;;;;;;6225599;23;20042;-64
2023/10/22 07:06:51;;;;;;;4.57;0.80;;;13.20;99.90;;;;;;6225442;23;20007;-64
2023/10/22 07:09:17;;;;;;;4.28;0.98;;;13.30;99.90;;;;;;6225878;23;20011;-64
2023/10/22 07:11:43;;;;;;;2.67;0.85;;;13.30;99.90;;;;;;6225531;23;20011;-63
2023/10/22 07:14:09;;;;;;;8.65;1.17;;;13.30;99.90;;;;;;6225049;23;20035;-64
2023/10/22 07:16:34;;;;;;;5.35;1.10;;;13.30;99.90;;;;;;6225672;23;20004;-64
2023/10/22 07:19:00;;;;;;;4.90;0.77;;;13.40;99.90;;;;;;6225837;23;20015;-64
2023/10/22 07:21:26;;;;;;;6.13;1.10;;;13.30;99.90;;;;;;6225356;23;20016;-64
2023/10/22 07:23:52;;;;;;;4.20;0.93;;;13.30;99.90;;;;;;6225526;23;20002;-64
2023/10/22 07:26:17;;;;;;;1.65;0.80;;;13.40;99.90;;;;;;6226003;23;20004;-64
2023/10/22 07:28:44;;;;;;;2.58;0.88;;;13.40;99.90;;;;;;6225876;23;20004;-64
2023/10/22 07:31:11;;;;;;;7.30;0.80;;;13.40;99.90;;;;;;6225091;23;20034;-64
2023/10/22 07:33:37;;;;;;;5.40;1.55;;;13.50;99.90;;;;;;6225225;23;20083;-64
2023/10/22 07:36:04;;;;;;;3.92;0.88;;;13.60;99.90;;;;;;6224909;23;20035;-64
2023/10/22 07:38:31;;;;;;;4.28;0.77;;;13.60;99.90;;;;;;6225090;23;20000;-64
2023/10/22 07:40:57;;;;;;;5.80;1.58;;;13.60;99.90;;;;;;6225819;23;20012;-64
2023/10/22 07:43:24;;;;;;;6.25;0.77;;;13.70;99.90;;;;;;6224993;23;20105;-64
2023/10/22 07:45:49;;;;;;;2.20;0.80;;;13.70;99.90;;;;;;6225237;23;20032;-63
2023/10/22 07:48:15;;;;;;;3.03;0.77;;;13.80;99.90;;;;;;6226210;23;20032;-64
2023/10/22 07:50:40;;;;;;;8.27;1.50;;;13.90;99.90;;;;;;6224647;23;20034;-64
2023/10/22 07:53:06;;;;;;;2.20;0.73;;;13.90;99.90;;;;;;6225785;23;20019;-64
2023/10/22 07:55:33;;;;;;;3.28;0.80;;;13.90;99.90;;;;;;6225166;23;20004;-64
2023/10/22 07:57:59;;;;;;;5.63;0.85;;;13.80;99.90;;;;;;6224713;23;20011;-64
2023/10/22 08:00:25;;;;;;;4.82;0.75;;;13.80;99.90;;;;;;6224426;23;20008;-64
2023/10/22 08:02:51;;;;;;;5.68;1.23;;;13.80;99.90;;;;;;6224814;23;20010;-64
2023/10/22 08:05:18;;;;;;;1.05;0.80;;;13.80;99.90;;;;;;6224760;23;20059;-64
2023/10/22 08:07:44;;;;;;;4.50;0.90;;;13.80;99.90;;;;;;6224887;23;20000;-64
2023/10/22 08:10:10;;;;;;;5.32;1.10;;;13.80;99.90;;;;;;6225481;23;20000;-64
2023/10/22 08:12:35;;;;;;;5.22;1.05;;;13.70;99.90;;;;;;6224745;23;20008;-64
2023/10/22 08:15:01;;;;;;;6.30;1.00;;;13.50;99.90;;;;;;6224519;23;20031;-64
2023/10/22 08:17:27;;;;;;;1.63;0.63;;;13.30;99.90;;;;;;6224873;23;20008;-64
2023/10/22 08:19:52;;;;;;;2.72;1.20;;;13.20;99.90;;;;;;6224936;23;20011;-64
2023/10/22 08:22:19;;;;;;;3.95;1.00;;;13.10;99.90;;;;;;6225698;23;20088;-64
2023/10/22 08:24:48;;;;;;;8.80;1.83;;;13.20;99.90;;;;;;6224866;23;20007;-64
2023/10/22 08:27:17;;;;;;;7.85;1.08;;;13.30;99.90;;;;;;6224700;23;20011;-64
2023/10/22 08:29:43;;;;;;;6.30;1.05;;;13.30;99.90;;;;;;6224516;23;20002;-64
2023/10/22 08:32:21;;;;;;;5.55;2.00;;;13.20;99.90;;;;;;5074459;28;20367;-64
2023/10/22 08:34:47;;;;;;;7.05;1.17;;;13.40;99.90;;;;;;5073556;28;20090;-64
2023/10/22 08:37:13;;;;;;;9.20;1.48;;;13.50;99.90;;;;;;5074659;28;20027;-64
2023/10/22 08:39:38;;;;;;;13.20;1.10;;;13.50;99.90;;;;;;5074292;28;20029;-64
2023/10/22 08:42:09;;;;;;;6.18;1.00;;;13.50;99.90;;;;;;5073335;28;20029;-64
2023/10/22 08:44:43;;;;;;;9.48;0.90;;;13.40;99.90;;;;;;5093196;22;20102;-64
2023/10/22 08:47:08;;;;;;;3.78;0.93;;;13.40;99.90;;;;;;5015007;28;20117;-64
2023/10/22 08:49:38;;;;;;;6.13;1.35;;;13.40;99.90;;;;;;5013661;28;20110;-64
2023/10/22 08:52:03;;;;;;;10.60;1.30;;;13.40;99.90;;;;;;5014332;28;20033;-64
2023/10/22 08:54:29;;;;;;;9.30;1.27;;;13.50;99.90;;;;;;5013422;28;20026;-64
2023/10/22 08:56:55;;;;;;;6.53;0.80;;;13.50;99.90;;;;;;5013444;28;20018;-64
2023/10/22 08:59:21;;;;;;;6.03;0.95;;;13.50;99.90;;;;;;5014244;28;20033;-64
2023/10/22 09:01:46;;;;;;;5.25;1.00;;;13.50;99.90;;;;;;5013455;28;20108;-64
2023/10/22 09:04:12;;;;;;;4.00;1.25;;;13.50;99.90;;;;;;5013313;28;20022;-64
2023/10/22 09:06:38;;;;;;;5.00;0.90;;;13.70;99.90;;;;;;5013514;28;20068;-64
2023/10/22 09:09:03;;;;;;;1.85;1.00;;;13.60;99.90;;;;;;5013329;28;20058;-64
2023/10/22 09:11:29;;;;;;;8.25;1.20;;;13.50;99.90;;;;;;5013164;28;20063;-64
2023/10/22 09:13:54;;;;;;;2.97;0.90;;;13.50;99.90;;;;;;5013289;28;20018;-64
2023/10/22 09:16:31;;;;;;;4.07;0.80;;;13.60;99.90;;;;;;5013146;28;20022;-64
2023/10/22 09:18:58;;;;;;;8.43;1.52;;;13.60;99.90;;;;;;5013054;28;20022;-65
2023/10/22 09:21:39;;;;;;;3.50;1.27;;;13.50;99.90;;;;;;5013796;28;20030;-64
2023/10/22 09:24:04;;;;;;;5.45;0.90;;;13.50;99.90;;;;;;5012947;28;20022;-64
2023/10/22 09:26:41;;;;;;;4.25;1.10;;;13.50;99.90;;;;;;5012746;28;20030;-64
2023/10/22 09:29:07;;;;;;;4.32;0.98;;;13.70;99.90;;;;;;5013753;28;20030;-64
2023/10/22 09:31:33;;;;;;;8.73;1.17;;;13.80;99.90;;;;;;5012706;28;20072;-64
2023/10/22 09:33:59;;;;;;;3.55;1.13;;;13.80;99.90;;;;;;5012802;28;20022;-64
2023/10/22 09:36:25;;;;;;;3.42;0.90;;;13.80;99.90;;;;;;5013692;28;20080;-64
2023/10/22 09:38:52;;;;;;;3.70;1.00;;;14.10;99.90;;;;;;5013159;28;20029;-66
2023/10/22 09:41:23;;;;;;;3.25;0.50;;;14.00;99.90;;;;;;5012693;28;20033;-66
2023/10/22 09:43:49;;;;;;;;;;;14.10;99.90;;;;;;4999635;28;20030;-66
2023/10/22 09:46:15;;;;;;;1.48;0.57;;;14.10;99.90;;;;;;5000914;28;19920;-66
2023/10/22 09:48:42;;;;;;;1.85;0.43;;;14.20;99.90;;;;;;4999872;28;20033;-66
2023/10/22 09:51:08;;;;;;;1.85;0.43;;;14.30;99.90;;;;;;5000633;28;20105;-66
2023/10/22 09:53:40;;;;;;;1.42;0.35;;;14.30;99.90;;;;;;4999388;28;20085;-66
2023/10/22 09:56:07;;;;;;;3.83;0.50;;;14.30;99.90;;;;;;5000401;28;20019;-67
2023/10/22 09:58:39;;;;;;;5.95;0.63;;;14.30;99.90;;;;;;4999733;28;20033;-66
2023/10/22 10:01:06;;;;;;;2.38;0.55;;;14.30;99.90;;;;;;5000258;28;20109;-66
2023/10/22 10:03:32;;;;;;;3.65;0.90;;;14.30;99.90;;;;;;4999094;28;20084;-66
2023/10/22 10:05:57;;;;;;;2.95;0.80;;;14.20;99.90;;;;;;4999983;28;20113;-66
2023/10/22 10:08:23;;;;;;;1.88;0.70;;;14.30;99.90;;;;;;5000240;28;20058;-66
2023/10/22 10:10:49;;;;;;;1.17;0.40;;;14.30;99.90;;;;;;4999081;28;20034;-66
2023/10/22 10:13:15;;;;;;;4.53;0.70;;;14.40;99.90;;;;;;4999138;28;20050;-66
2023/10/22 10:15:40;;;;;;;2.13;0.65;;;14.40;99.90;;;;;;4999920;28;20050;-66
2023/10/22 10:18:07;;;;;;;3.15;0.80;;;14.30;99.90;;;;;;4999058;28;20077;-66
2023/10/22 10:20:35;;;;;;;4.70;0.60;;;14.40;99.90;;;;;;4999853;28;20059;-66
2023/10/22 10:23:07;;;;;;;7.13;0.50;;;14.40;99.90;;;;;;4999834;28;20022;-66
2023/10/22 10:25:33;;;;;;;6.43;0.60;;;14.30;99.90;;;;;;4999833;28;20029;-66
2023/10/22 10:28:06;;;;;;;2.05;0.70;;;14.20;99.90;;;;;;4999657;28;20036;-66
2023/10/22 10:30:32;;;;;;;4.88;0.77;;;14.20;99.90;;;;;;4998635;28;20065;-64
2023/10/22 10:32:58;;;;;;;1.50;0.90;;;14.20;99.90;;;;;;4999203;28;20090;-64
2023/10/22 10:35:25;;;;;;;5.18;0.57;;;14.30;99.90;;;;;;4998386;28;20105;-64
2023/10/22 10:38:15;;;;;;;3.22;0.60;;;14.40;99.90;;;;;;4998975;28;20109;-66
2023/10/22 10:40:51;;;;;;;2.30;0.50;;;14.40;99.90;;;;;;4999659;28;20097;-66
2023/10/22 10:43:18;;;;;;;4.38;0.52;;;14.40;99.90;;;;;;4999756;28;20113;-67
2023/10/22 10:46:21;;;;;;;2.08;0.60;;;14.40;99.90;;;;;;4999260;28;20038;-67
2023/10/22 10:48:49;;;;;;;3.33;0.65;;;14.50;99.90;;;;;;4999202;28;20034;-66
2023/10/22 10:51:20;;;;;;;1.30;0.70;;;14.50;99.90;;;;;;4999081;28;20110;-67
2023/10/22 10:54:00;;;;;;;5.00;0.68;;;14.60;99.90;;;;;;4998260;28;20109;-67
2023/10/22 10:56:46;;;;;;;2.23;0.80;;;14.60;99.90;;;;;;4999326;28;20026;-66
2023/10/22 10:59:34;;;;;;;1.15;0.70;;;14.60;99.90;;;;;;4999217;28;20054;-69
2023/10/22 11:01:59;;;;;;;2.65;0.73;;;14.50;99.90;;;;;;4998146;28;20030;-69
2023/10/22 11:04:25;;;;;;;0.98;0.50;;;14.50;99.90;;;;;;4997983;28;20072;-69
2023/10/22 11:06:51;;;;;;;1.75;0.32;;;14.50;99.90;;;;;;4998724;28;20033;-69
2023/10/22 11:09:16;;;;;;;1.85;0.50;;;14.40;99.90;;;;;;4997933;28;20042;-69
2023/10/22 11:11:59;;;;;;;1.02;0.40;;;14.50;99.90;;;;;;4998671;28;20117;-69
2023/10/22 11:14:26;;;;;;;2.90;0.50;;;14.50;99.90;;;;;;4997825;28;20026;-66
2023/10/22 11:16:54;;;;;;;3.33;0.40;;;14.50;99.90;;;;;;4997727;28;20022;-66
2023/10/22 11:19:27;;;;;;;4.00;0.70;;;14.40;99.90;;;;;;4997744;28;20054;-66
2023/10/22 11:21:56;;;;;;;1.25;0.50;;;14.40;99.90;;;;;;4997672;28;20058;-67
2023/10/22 11:24:29;;;;;;;3.05;0.90;;;14.50;99.90;;;;;;4998497;28;20113;-66
2023/10/22 11:27:05;;;;;;;2.40;0.70;;;14.50;99.90;;;;;;4997637;28;20070;-66
2023/10/22 11:29:40;;;;;;;2.05;0.70;;;14.60;99.90;;;;;;4997446;28;20049;-67
2023/10/22 11:32:11;;;;;;;3.03;0.80;;;14.60;99.90;;;;;;4998408;28;20025;-66
2023/10/22 11:34:45;;;;;;;3.75;0.80;;;14.70;99.90;;;;;;4998499;28;20072;-66
2023/10/22 11:37:11;;;;;;;2.47;0.70;;;14.70;99.90;;;;;;4998287;28;20031;-66
2023/10/22 11:39:36;;;;;;;2.78;0.55;;;14.50;99.90;;;;;;4998241;28;20053;-66
2023/10/22 11:42:07;;;;;;;4.30;0.60;;;14.50;99.90;;;;;;4998159;28;20033;-66
2023/10/22 11:44:34;;;;;;;2.17;0.50;;;14.60;99.90;;;;;;4997929;28;20038;-67
2023/10/22 11:47:01;;;;;;;1.35;1.00;;;14.60;99.90;;;;;;4997987;28;20041;-66
2023/10/22 11:49:27;;;;;;;1.27;0.70;;;14.60;99.90;;;;;;4997260;28;20058;-66
2023/10/22 11:51:53;;;;;;;4.13;0.68;;;14.70;99.90;;;;;;4997381;28;20058;-66
2023/10/22 11:54:19;;;;;;;2.75;0.52;;;14.70;99.90;;;;;;4997147;28;20018;-66
2023/10/22 11:56:45;;;;;;;1.10;0.60;;;14.70;99.90;;;;;;4997022;28;20022;-66
2023/10/22 11:59:11;;;;;;;1.75;0.60;;;14.70;99.90;;;;;;4997337;28;20027;-66
2023/10/22 12:01:37;;;;;;;2.42;0.82;;;14.60;99.90;;;;;;4996973;28;20033;-67
2023/10/22 12:04:04;;;;;;;3.15;0.80;;;14.50;99.90;;;;;;4998020;28;20034;-66
2023/10/22 12:06:30;;;;;;;1.67;0.55;;;14.50;99.90;;;;;;4996736;28;20027;-66
2023/10/22 12:08:55;;;;;;;6.53;1.10;;;14.50;99.90;;;;;;4996964;28;20048;-69
2023/10/22 12:11:21;;;;;;;5.25;0.73;;;14.60;99.90;;;;;;4997851;28;20026;-69
2023/10/22 12:13:46;;;;;;;0.98;0.50;;;14.80;99.90;;;;;;4997175;28;20026;-67
2023/10/22 12:16:12;;;;;;;3.20;0.90;;;14.90;99.90;;;;;;4997813;28;20030;-67
2023/10/22 12:18:38;;;;;;;4.03;1.00;;;14.90;99.90;;;;;;4996779;28;20026;-66
2023/10/22 12:21:03;;;;;;;3.92;0.70;;;15.00;99.90;;;;;;4997075;28;20022;-66
2023/10/22 12:23:29;;;;;;;4.35;0.80;;;15.00;99.90;;;;;;4997566;28;20022;-66
2023/10/22 12:25:54;;;;;;;1.67;0.70;;;15.00;99.90;;;;;;4996765;28;20026;-66
2023/10/22 12:28:24;;;;;;;1.88;0.60;;;15.10;99.90;;;;;;4997991;28;20023;-66
2023/10/22 12:30:50;;;;;;;1.48;0.60;;;15.10;99.90;;;;;;4997556;28;20025;-66
2023/10/22 12:33:15;;;;;;;2.50;0.70;;;15.10;99.90;;;;;;4996914;28;20022;-69
2023/10/22 12:35:41;;;;;;;1.75;0.80;;;15.20;99.90;;;;;;4997769;28;20042;-69
2023/10/22 12:38:06;;;;;;;3.97;1.05;;;15.20;99.90;;;;;;4996506;28;20034;-69
2023/10/22 12:40:32;;;;;;;0.98;0.50;;;15.20;99.90;;;;;;4997646;28;20041;-69
2023/10/22 12:42:57;;;;;;;5.07;0.82;;;15.20;99.90;;;;;;4997425;28;20113;-69
2023/10/22 12:45:23;;;;;;;4.25;1.10;;;15.20;99.90;;;;;;4996520;28;20117;-69
2023/10/22 12:47:48;;;;;;;3.92;0.73;;;15.20;99.90;;;;;;4996607;28;20072;-71